Jaohar H — 9LU2089 — position and weather

sailwx.info

Track history (hours):
 
Tides and Currents Weather Stations Pressure Air Temp Water Temp Dewpoint Dewpoint Depression Visibility Wind Speed Wind Dir Waves Ship Positions

Jaohar H

Last reported at 2018-Jul-19 13:51 UTC. Time now 2018-Jul-20 12:19 UTC.
Position N 45°07' E 036°30'.

Length 76 m; draft 5 m.

Type: Cargo ship. MMSI: 667001285.

Date/timePositionNaut miles runAvg speedWind from/ knotsBaromVisibWave heightAir tempDewpointWater temp
2018-Jul-19 13:51N 45°07' E 036°30'3 9.1
2018-Jul-19 13:28N 45°10' E 036°29'4 8.8
2018-Jul-19 13:00N 45°14' E 036°28'4 7.3
2018-Jul-19 12:30N 45°18' E 036°29'4 7.5
2018-Jul-19 12:00N 45°20' E 036°34'4 7.6
2018-Jul-19 11:30N 45°21' E 036°39'4 7.7
2018-Jul-19 11:00N 45°25' E 036°41'2 4.7
2018-Jul-19 10:30N 45°27' E 036°39'2 4.8
2018-Jul-19 10:00N 45°29' E 036°37'1 0.2
2018-Jul-19 06:33N 45°29' E 036°37'1 5.9
2018-Jul-19 06:27N 45°29' E 036°38'  
2018-Jul-16 21:32N 45°24' E 036°41'010.5
2018-Jul-16 21:30N 45°24' E 036°41'4 8.0
2018-Jul-16 21:00N 45°20' E 036°38'9 2.4
2018-Jul-16 17:19N 45°13' E 036°30'  
2018-Jul-09 19:59N 42°53' E 028°04'5 9.8
2018-Jul-09 19:30N 42°58' E 028°02'  
Track history (hours):
 
Tides and Currents Weather Stations Pressure Air Temp Water Temp Dewpoint Dewpoint Depression Visibility Wind Speed Wind Dir Waves Ship Positions

Jaohar H

Last reported at 2018-Jul-19 13:51 UTC. Time now 2018-Jul-20 12:19 UTC.
Position N 45°07' E 036°30'.

Length 76 m; draft 5 m.

Type: Cargo ship. MMSI: 667001285.

Date/timePositionNaut miles runAvg speedWind from/ knotsBaromVisibWave heightAir tempDewpointWater temp
2018-Jul-19 13:51N 45°07' E 036°30'3 9.1
2018-Jul-19 13:28N 45°10' E 036°29'4 8.8
2018-Jul-19 13:00N 45°14' E 036°28'4 7.3
2018-Jul-19 12:30N 45°18' E 036°29'4 7.5
2018-Jul-19 12:00N 45°20' E 036°34'4 7.6
2018-Jul-19 11:30N 45°21' E 036°39'4 7.7
2018-Jul-19 11:00N 45°25' E 036°41'2 4.7
2018-Jul-19 10:30N 45°27' E 036°39'2 4.8
2018-Jul-19 10:00N 45°29' E 036°37'1 0.2
2018-Jul-19 06:33N 45°29' E 036°37'1 5.9
2018-Jul-19 06:27N 45°29' E 036°38'  
2018-Jul-16 21:32N 45°24' E 036°41'010.5
2018-Jul-16 21:30N 45°24' E 036°41'4 8.0
2018-Jul-16 21:00N 45°20' E 036°38'9 2.4
2018-Jul-16 17:19N 45°13' E 036°30'  
2018-Jul-09 19:59N 42°53' E 028°04'5 9.8
2018-Jul-09 19:30N 42°58' E 028°02'  

Dump ship's entire track history